createdAt,value
2018-10-05T00:00:00.651Z,772.22
2018-10-05T00:00:04.807Z,772.18
2018-10-05T00:00:08.926Z,772.19
2018-10-05T00:00:13.245Z,772.19
2018-10-05T00:00:17.460Z,772.13
2018-10-05T00:00:21.663Z,772.13
2018-10-05T00:00:25.869Z,772.14
2018-10-05T00:00:29.967Z,772.22
2018-10-05T00:00:34.275Z,772.21
2018-10-05T00:00:38.587Z,772.19
2018-10-05T00:00:42.685Z,772.18
2018-10-05T00:00:46.995Z,772.13
2018-10-05T00:00:51.196Z,772.16
2018-10-05T00:00:55.502Z,772.17
2018-10-05T00:00:59.701Z,772.17
2018-10-05T00:01:03.793Z,772.11
2018-10-05T00:01:08.109Z,772.09
2018-10-05T00:01:12.314Z,772.1
2018-10-05T00:01:16.684Z,772.15
2018-10-05T00:01:20.789Z,772.16
2018-10-05T00:01:25.101Z,772.15
2018-10-05T00:01:29.091Z,772.15
2018-10-05T00:01:33.100Z,772.14
2018-10-05T00:01:37.301Z,772.15
2018-10-05T00:01:41.284Z,772.16
2018-10-05T00:01:45.378Z,772.15
2018-10-05T00:01:49.479Z,772.16
2018-10-05T00:01:53.792Z,772.18
2018-10-05T00:01:58.004Z,772.16
2018-10-05T00:02:02.213Z,772.14
2018-10-05T00:02:06.207Z,772.1
2018-10-05T00:02:10.420Z,772.08
2018-10-05T00:02:14.515Z,772.13
2018-10-05T00:02:18.717Z,772.13
2018-10-05T00:02:22.926Z,772.1
2018-10-05T00:02:27.233Z,772.16
2018-10-05T00:02:31.436Z,772.21
2018-10-05T00:02:35.637Z,772.19
2018-10-05T00:02:39.845Z,772.18
2018-10-05T00:02:44.059Z,772.13
2018-10-05T00:02:48.265Z,772.15
2018-10-05T00:02:52.480Z,772.17
2018-10-05T00:02:56.576Z,772.19
2018-10-05T00:03:00.467Z,772.15
2018-10-05T00:03:04.452Z,772.12
2018-10-05T00:03:08.652Z,772.15
2018-10-05T00:03:12.752Z,772.15
2018-10-05T00:03:16.850Z,772.16
2018-10-05T00:03:20.942Z,772.13
2018-10-05T00:03:25.037Z,772.14
2018-10-05T00:03:29.244Z,772.14
2018-10-05T00:03:33.439Z,772.12
2018-10-05T00:03:37.421Z,772.09
2018-10-05T00:03:41.741Z,772.09
2018-10-05T00:03:46.045Z,772.09
2018-10-05T00:03:50.357Z,772.1
2018-10-05T00:03:54.554Z,772.09
2018-10-05T00:03:58.869Z,772.14
2018-10-05T00:04:03.119Z,772.14
2018-10-05T00:04:06.999Z,772.1
2018-10-05T00:04:10.994Z,772.14
2018-10-05T00:04:15.197Z,772.12
2018-10-05T00:04:19.293Z,772.07
2018-10-05T00:04:23.492Z,772.11
2018-10-05T00:04:27.480Z,772.09
2018-10-05T00:04:31.689Z,772.12
2018-10-05T00:04:35.680Z,772.09
2018-10-05T00:04:39.993Z,772.11
2018-10-05T00:04:44.087Z,772.12
2018-10-05T00:04:48.297Z,772.06
2018-10-05T00:04:52.389Z,772.11
2018-10-05T00:04:56.593Z,772.11
2018-10-05T00:05:00.691Z,772.11
2018-10-05T00:05:04.908Z,772.12
2018-10-05T00:05:09.112Z,772.09
2018-10-05T00:05:13.313Z,772.1
2018-10-05T00:05:17.634Z,772.09
2018-10-05T00:05:21.840Z,772.08
2018-10-05T00:05:26.042Z,772.08
2018-10-05T00:05:30.258Z,772.04
2018-10-05T00:05:34.566Z,772.07
2018-10-05T00:05:38.938Z,772.1
2018-10-05T00:05:43.030Z,772.12
2018-10-05T00:05:47.130Z,772.08
2018-10-05T00:05:51.440Z,772.1
2018-10-05T00:05:55.748Z,772.05
2018-10-05T00:06:00.059Z,772.11
2018-10-05T00:06:04.364Z,772.07
2018-10-05T00:06:08.454Z,772.03
2018-10-05T00:06:12.665Z,772.05
2018-10-05T00:06:16.866Z,771.99
2018-10-05T00:06:21.064Z,772.06
2018-10-05T00:06:25.050Z,772.09
2018-10-05T00:06:29.365Z,772.09
2018-10-05T00:06:33.458Z,772.04
2018-10-05T00:06:37.557Z,772.03
2018-10-05T00:06:41.760Z,772.02
2018-10-05T00:06:46.094Z,772.05
2018-10-05T00:06:49.974Z,772.05
2018-10-05T00:06:54.175Z,772.08
2018-10-05T00:06:58.386Z,772.06
2018-10-05T00:07:02.422Z,772.08
2018-10-05T00:07:06.303Z,772.03
2018-10-05T00:07:10.611Z,772.04
2018-10-05T00:07:14.819Z,772.02
2018-10-05T00:07:19.016Z,772.03
2018-10-05T00:07:23.109Z,772.03
2018-10-05T00:07:27.311Z,772.06
2018-10-05T00:07:31.405Z,772.02
2018-10-05T00:07:35.718Z,772.04
2018-10-05T00:07:39.813Z,772.03
2018-10-05T00:07:44.012Z,772.03
2018-10-05T00:07:48.325Z,772.02
2018-10-05T00:07:52.523Z,772.03
2018-10-05T00:07:56.616Z,772.01
2018-10-05T00:08:00.928Z,771.98
2018-10-05T00:08:05.021Z,771.99
2018-10-05T00:08:09.014Z,771.99
2018-10-05T00:08:13.218Z,772.01
2018-10-05T00:08:17.210Z,772.02
2018-10-05T00:08:21.342Z,772.02
2018-10-05T00:08:25.662Z,772.01
2018-10-05T00:08:29.973Z,772.02
2018-10-05T00:08:34.063Z,772.02
2018-10-05T00:08:38.267Z,772
2018-10-05T00:08:42.579Z,772.01
2018-10-05T00:08:46.781Z,772.01
2018-10-05T00:08:50.981Z,772.01
2018-10-05T00:08:55.186Z,772.01
2018-10-05T00:08:59.397Z,772.01
2018-10-05T00:09:03.381Z,772
2018-10-05T00:09:07.585Z,771.99
2018-10-05T00:09:11.787Z,771.98
2018-10-05T00:09:15.880Z,772
2018-10-05T00:09:19.992Z,771.98
2018-10-05T00:09:24.298Z,771.96
2018-10-05T00:09:28.408Z,771.93
2018-10-05T00:09:32.617Z,771.93
2018-10-05T00:09:36.818Z,771.98
2018-10-05T00:09:41.015Z,771.96
2018-10-05T00:09:45.226Z,771.95
2018-10-05T00:09:49.429Z,771.95
2018-10-05T00:09:53.743Z,771.98
2018-10-05T00:09:57.942Z,771.97
2018-10-05T00:10:01.923Z,771.97
2018-10-05T00:10:06.024Z,771.96
2018-10-05T00:10:10.014Z,771.96
2018-10-05T00:10:14.211Z,771.98
2018-10-05T00:10:18.559Z,771.97
2018-10-05T00:10:22.655Z,771.96
2018-10-05T00:10:26.847Z,771.95
2018-10-05T00:10:31.161Z,771.92
2018-10-05T00:10:35.262Z,771.95
2018-10-05T00:10:39.581Z,771.93
2018-10-05T00:10:43.885Z,771.94
2018-10-05T00:10:48.086Z,771.9
2018-10-05T00:10:52.284Z,771.93
2018-10-05T00:10:56.376Z,771.92
2018-10-05T00:11:00.683Z,771.91
2018-10-05T00:11:04.667Z,771.95
2018-10-05T00:11:08.971Z,771.9
2018-10-05T00:11:13.167Z,771.94
2018-10-05T00:11:17.370Z,771.97
2018-10-05T00:11:21.471Z,771.93
2018-10-05T00:11:25.705Z,771.96
2018-10-05T00:11:29.811Z,771.94
2018-10-05T00:11:33.908Z,771.95
2018-10-05T00:11:38.128Z,771.95
2018-10-05T00:11:42.117Z,771.92
2018-10-05T00:11:46.217Z,771.95
2018-10-05T00:11:50.310Z,771.94
2018-10-05T00:11:54.193Z,771.96
2018-10-05T00:11:58.288Z,771.98
2018-10-05T00:12:02.500Z,771.97
2018-10-05T00:12:06.594Z,771.95
2018-10-05T00:12:10.799Z,771.93
2018-10-05T00:12:14.892Z,771.94
2018-10-05T00:12:18.994Z,771.93
2018-10-05T00:12:23.200Z,771.95
2018-10-05T00:12:27.188Z,771.92
2018-10-05T00:12:31.186Z,771.92
2018-10-05T00:12:35.636Z,771.9
2018-10-05T00:12:40.310Z,771.92
2018-10-05T00:12:44.750Z,771.91
2018-10-05T00:12:49.718Z,771.91
2018-10-05T00:12:54.591Z,771.91
2018-10-05T00:12:58.862Z,771.92
2018-10-05T00:13:02.855Z,771.87
2018-10-05T00:13:07.064Z,771.92
2018-10-05T00:13:11.270Z,771.87
2018-10-05T00:13:15.473Z,771.89
2018-10-05T00:13:19.591Z,771.88
2018-10-05T00:13:23.794Z,771.88
2018-10-05T00:13:28.101Z,771.85
2018-10-05T00:13:32.311Z,771.84
2018-10-05T00:13:36.409Z,771.81
2018-10-05T00:13:40.624Z,771.87
2018-10-05T00:13:44.829Z,771.88
2018-10-05T00:13:48.813Z,771.91
2018-10-05T00:13:53.018Z,771.88
2018-10-05T00:13:57.225Z,771.88
2018-10-05T00:14:01.532Z,771.86
2018-10-05T00:14:05.628Z,771.89
2018-10-05T00:14:10.000Z,771.81
2018-10-05T00:14:14.101Z,771.85
2018-10-05T00:14:18.408Z,771.87
2018-10-05T00:14:22.616Z,771.85
2018-10-05T00:14:26.603Z,771.88
2018-10-05T00:14:30.804Z,771.89
2018-10-05T00:14:35.110Z,771.9
2018-10-05T00:14:39.315Z,771.89
2018-10-05T00:14:43.635Z,771.9
2018-10-05T00:14:47.729Z,771.88
2018-10-05T00:14:51.941Z,771.88
2018-10-05T00:14:56.142Z,771.9
2018-10-05T00:15:00.142Z,771.89
2018-10-05T00:15:04.134Z,771.88
2018-10-05T00:15:08.012Z,771.91
2018-10-05T00:15:12.106Z,771.87
2018-10-05T00:15:16.332Z,771.88
2018-10-05T00:15:20.538Z,771.89
2018-10-05T00:15:24.740Z,771.92
2018-10-05T00:15:28.846Z,771.9
2018-10-05T00:15:32.728Z,771.91
2018-10-05T00:15:37.041Z,771.87
2018-10-05T00:15:41.155Z,771.87
2018-10-05T00:15:45.357Z,771.89
2018-10-05T00:15:49.667Z,771.92
2018-10-05T00:15:53.891Z,771.9
2018-10-05T00:15:58.089Z,771.89
2018-10-05T00:16:02.189Z,771.89
2018-10-05T00:16:06.301Z,771.88
2018-10-05T00:16:10.620Z,771.92
2018-10-05T00:16:14.942Z,771.9
2018-10-05T00:16:18.925Z,771.85
2018-10-05T00:16:23.124Z,771.83
2018-10-05T00:16:27.218Z,771.84
2018-10-05T00:16:31.561Z,771.86
2018-10-05T00:16:35.555Z,771.86
2018-10-05T00:16:39.648Z,771.91
2018-10-05T00:16:43.742Z,771.92
2018-10-05T00:16:47.837Z,771.91
2018-10-05T00:16:51.937Z,771.93
2018-10-05T00:16:56.158Z,771.88
2018-10-05T00:17:00.357Z,771.93
2018-10-05T00:17:04.709Z,771.92
2018-10-05T00:17:08.916Z,771.91
2018-10-05T00:17:13.227Z,771.9
2018-10-05T00:17:17.322Z,771.96
2018-10-05T00:17:21.422Z,771.95
2018-10-05T00:17:25.415Z,771.92
2018-10-05T00:17:29.621Z,771.93
2018-10-05T00:17:33.937Z,771.95
2018-10-05T00:17:38.250Z,771.98
2018-10-05T00:17:42.570Z,771.93
2018-10-05T00:17:46.559Z,771.91
2018-10-05T00:17:50.657Z,771.97
2018-10-05T00:17:54.763Z,771.95
2018-10-05T00:17:59.080Z,771.97
2018-10-05T00:18:03.394Z,771.97
2018-10-05T00:18:07.491Z,771.97
2018-10-05T00:18:11.588Z,771.98
2018-10-05T00:18:15.795Z,771.93
2018-10-05T00:18:19.898Z,771.98
2018-10-05T00:18:24.004Z,771.98
2018-10-05T00:18:28.313Z,771.98
2018-10-05T00:18:32.313Z,771.95
2018-10-05T00:18:36.517Z,772
2018-10-05T00:18:40.515Z,771.99
2018-10-05T00:18:44.714Z,772
2018-10-05T00:18:48.812Z,771.98
2018-10-05T00:18:52.909Z,771.97
2018-10-05T00:18:57.112Z,771.99
2018-10-05T00:19:01.208Z,771.99
2018-10-05T00:19:05.141Z,772
2018-10-05T00:19:09.344Z,772
2018-10-05T00:19:13.552Z,772.02
2018-10-05T00:19:17.897Z,771.99
2018-10-05T00:19:22.201Z,771.98
2018-10-05T00:19:26.189Z,772.01
2018-10-05T00:19:30.394Z,772.01
2018-10-05T00:19:34.702Z,772.02
2018-10-05T00:19:38.901Z,772.02
2018-10-05T00:19:43.212Z,771.98
2018-10-05T00:19:47.415Z,772.01
2018-10-05T00:19:51.623Z,772.02
2018-10-05T00:19:55.825Z,772.03
2018-10-05T00:20:00.025Z,772.04
2018-10-05T00:20:04.121Z,772.03
2018-10-05T00:20:08.007Z,772
2018-10-05T00:20:12.204Z,771.98
2018-10-05T00:20:16.468Z,771.98
2018-10-05T00:20:21.111Z,772.05
2018-10-05T00:20:25.553Z,772.07
2018-10-05T00:20:30.425Z,772.03
2018-10-05T00:20:34.822Z,772.02
2018-10-05T00:20:39.510Z,772.06
2018-10-05T00:20:43.729Z,772.04
2018-10-05T00:20:48.044Z,772.04
2018-10-05T00:20:52.243Z,772.06
2018-10-05T00:20:56.442Z,772.04
2018-10-05T00:21:00.643Z,772.08
2018-10-05T00:21:04.630Z,772.07
2018-10-05T00:21:08.730Z,772.08
2018-10-05T00:21:13.036Z,772.03
2018-10-05T00:21:17.242Z,772.04
2018-10-05T00:21:21.551Z,772.08
2018-10-05T00:21:25.639Z,772.08
2018-10-05T00:21:29.629Z,772.07
2018-10-05T00:21:33.728Z,772.08
2018-10-05T00:21:37.995Z,772.07
2018-10-05T00:21:42.088Z,772.08
2018-10-05T00:21:46.180Z,772.07
2018-10-05T00:21:50.385Z,772.08
2018-10-05T00:21:54.588Z,772.04
2018-10-05T00:21:58.686Z,772.07
2018-10-05T00:22:02.892Z,772.1
2018-10-05T00:22:07.093Z,772.1
2018-10-05T00:22:11.409Z,772.1
2018-10-05T00:22:15.725Z,772.08
2018-10-05T00:22:19.927Z,772.11
2018-10-05T00:22:24.242Z,772.08
2018-10-05T00:22:28.445Z,772.11
2018-10-05T00:22:32.653Z,772.16
2018-10-05T00:22:36.646Z,772.15
2018-10-05T00:22:40.844Z,772.15
2018-10-05T00:22:45.141Z,772.14
2018-10-05T00:22:49.513Z,772.1
2018-10-05T00:22:53.622Z,772.13
2018-10-05T00:22:57.937Z,772.11
2018-10-05T00:23:02.138Z,772.14
2018-10-05T00:23:06.017Z,772.12
2018-10-05T00:23:10.224Z,772.12
2018-10-05T00:23:14.437Z,772.14
2018-10-05T00:23:18.533Z,772.14
2018-10-05T00:23:22.633Z,772.15
2018-10-05T00:23:26.835Z,772.14
2018-10-05T00:23:31.141Z,772.11
2018-10-05T00:23:35.446Z,772.14
2018-10-05T00:23:39.664Z,772.17
2018-10-05T00:23:43.862Z,772.16
2018-10-05T00:23:48.065Z,772.18
2018-10-05T00:23:52.268Z,772.18
2018-10-05T00:23:56.582Z,772.2
2018-10-05T00:24:00.790Z,772.17
2018-10-05T00:24:04.827Z,772.2
2018-10-05T00:24:08.817Z,772.17
2018-10-05T00:24:12.912Z,772.18
2018-10-05T00:24:17.009Z,772.2
2018-10-05T00:24:21.329Z,772.17
2018-10-05T00:24:25.591Z,772.14
2018-10-05T00:24:29.802Z,772.21
2018-10-05T00:24:34.116Z,772.17
2018-10-05T00:24:38.005Z,772.2
2018-10-05T00:24:42.222Z,772.19
2018-10-05T00:24:46.434Z,772.18
2018-10-05T00:24:50.754Z,772.2
2018-10-05T00:24:54.854Z,772.22
2018-10-05T00:24:59.060Z,772.19
2018-10-05T00:25:03.372Z,772.21
2018-10-05T00:25:07.576Z,772.23
2018-10-05T00:25:11.894Z,772.2
2018-10-05T00:25:16.097Z,772.22
2018-10-05T00:25:20.317Z,772.25
2018-10-05T00:25:24.413Z,772.24
2018-10-05T00:25:28.509Z,772.21
2018-10-05T00:25:32.722Z,772.22
2018-10-05T00:25:36.709Z,772.22
2018-10-05T00:25:40.924Z,772.23
2018-10-05T00:25:45.239Z,772.23
2018-10-05T00:25:49.437Z,772.23
2018-10-05T00:25:53.422Z,772.24
2018-10-05T00:25:57.748Z,772.24
2018-10-05T00:26:02.065Z,772.25
2018-10-05T00:26:06.282Z,772.25
2018-10-05T00:26:10.546Z,772.25
2018-10-05T00:26:14.748Z,772.21
2018-10-05T00:26:18.848Z,772.24
2018-10-05T00:26:22.994Z,772.25
2018-10-05T00:26:27.316Z,772.24
2018-10-05T00:26:31.309Z,772.24
2018-10-05T00:26:35.505Z,772.24
2018-10-05T00:26:39.712Z,772.25
2018-10-05T00:26:44.023Z,772.24
2018-10-05T00:26:48.341Z,772.24
2018-10-05T00:26:52.655Z,772.23
2018-10-05T00:26:56.854Z,772.25
2018-10-05T00:27:00.945Z,772.24
2018-10-05T00:27:05.192Z,772.25
2018-10-05T00:27:09.294Z,772.25
2018-10-05T00:27:13.608Z,772.26
2018-10-05T00:27:17.703Z,772.27
2018-10-05T00:27:21.904Z,772.26
2018-10-05T00:27:26.213Z,772.25
2018-10-05T00:27:30.530Z,772.26
2018-10-05T00:27:34.761Z,772.25
2018-10-05T00:27:39.069Z,772.25
2018-10-05T00:27:43.280Z,772.28
2018-10-05T00:27:47.481Z,772.26
2018-10-05T00:27:51.805Z,772.26
2018-10-05T00:27:56.114Z,772.27
2018-10-05T00:28:00.309Z,772.25
2018-10-05T00:28:04.295Z,772.27
2018-10-05T00:28:08.610Z,772.24
2018-10-05T00:28:12.808Z,772.24
2018-10-05T00:28:17.113Z,772.25
2018-10-05T00:28:21.325Z,772.21
2018-10-05T00:28:25.641Z,772.26
2018-10-05T00:28:29.949Z,772.23
2018-10-05T00:28:34.156Z,772.26
2018-10-05T00:28:38.471Z,772.27
2018-10-05T00:28:42.561Z,772.26
2018-10-05T00:28:46.869Z,772.23
2018-10-05T00:28:50.970Z,772.25
2018-10-05T00:28:55.170Z,772.26
2018-10-05T00:28:59.496Z,772.28
2018-10-05T00:29:03.594Z,772.26
2018-10-05T00:29:07.801Z,772.27
2018-10-05T00:29:12.112Z,772.25
2018-10-05T00:29:16.421Z,772.27
2018-10-05T00:29:20.618Z,772.26
2018-10-05T00:29:24.931Z,772.28
2018-10-05T00:29:28.920Z,772.29
2018-10-05T00:29:33.240Z,772.29
2018-10-05T00:29:37.332Z,772.26
2018-10-05T00:29:41.660Z,772.25
2018-10-05T00:29:45.761Z,772.23
2018-10-05T00:29:50.073Z,772.26
2018-10-05T00:29:54.173Z,772.27
2018-10-05T00:29:58.380Z,772.28
2018-10-05T00:30:02.367Z,772.26
2018-10-05T00:30:06.373Z,772.25
2018-10-05T00:30:10.680Z,772.29
2018-10-05T00:30:14.889Z,772.27
2018-10-05T00:30:19.211Z,772.25
2018-10-05T00:30:23.196Z,772.26
2018-10-05T00:30:27.398Z,772.28
2018-10-05T00:30:31.596Z,772.21
2018-10-05T00:30:35.693Z,772.22
2018-10-05T00:30:40.005Z,772.21
2018-10-05T00:30:44.206Z,772.26
2018-10-05T00:30:48.406Z,772.22
2018-10-05T00:30:52.608Z,772.25
2018-10-05T00:30:56.703Z,772.23
2018-10-05T00:31:01.013Z,772.25
2018-10-05T00:31:05.111Z,772.21
2018-10-05T00:31:09.418Z,772.23
2018-10-05T00:31:13.629Z,772.25
2018-10-05T00:31:17.737Z,772.27
2018-10-05T00:31:21.942Z,772.27
2018-10-05T00:31:26.252Z,772.25
2018-10-05T00:31:30.571Z,772.28
2018-10-05T00:31:34.667Z,772.28
2018-10-05T00:31:38.988Z,772.27
2018-10-05T00:31:43.083Z,772.27
2018-10-05T00:31:47.283Z,772.25
2018-10-05T00:31:51.477Z,772.28
2018-10-05T00:31:55.792Z,772.29
2018-10-05T00:32:00.023Z,772.27
2018-10-05T00:32:04.345Z,772.27
2018-10-05T00:32:08.546Z,772.24
2018-10-05T00:32:12.759Z,772.27
2018-10-05T00:32:17.256Z,772.25
2018-10-05T00:32:21.606Z,772.23
2018-10-05T00:32:26.423Z,772.29
2018-10-05T00:32:31.598Z,772.26
2018-10-05T00:32:36.579Z,772.22
2018-10-05T00:32:40.895Z,772.27
2018-10-05T00:32:45.207Z,772.23
2018-10-05T00:32:49.406Z,772.23
2018-10-05T00:32:53.403Z,772.24
2018-10-05T00:32:57.709Z,772.25
2018-10-05T00:33:01.911Z,772.26
2018-10-05T00:33:06.021Z,772.31
2018-10-05T00:33:10.328Z,772.27
2018-10-05T00:33:14.647Z,772.23
2018-10-05T00:33:18.850Z,772.29
2018-10-05T00:33:22.945Z,772.28
2018-10-05T00:33:27.144Z,772.26
2018-10-05T00:33:31.340Z,772.3
2018-10-05T00:33:35.541Z,772.28
2018-10-05T00:33:39.846Z,772.28
2018-10-05T00:33:43.944Z,772.29
2018-10-05T00:33:48.251Z,772.27
2018-10-05T00:33:52.453Z,772.32
2018-10-05T00:33:56.552Z,772.3
2018-10-05T00:34:00.868Z,772.29
2018-10-05T00:34:05.331Z,772.28
2018-10-05T00:34:09.213Z,772.28
2018-10-05T00:34:13.416Z,772.27
2018-10-05T00:34:17.523Z,772.27
2018-10-05T00:34:21.826Z,772.32
2018-10-05T00:34:25.937Z,772.29
2018-10-05T00:34:30.035Z,772.27
2018-10-05T00:34:34.129Z,772.31
2018-10-05T00:34:38.328Z,772.31
2018-10-05T00:34:42.525Z,772.28
2018-10-05T00:34:46.618Z,772.33
2018-10-05T00:34:50.935Z,772.3
2018-10-05T00:34:55.242Z,772.33
2018-10-05T00:34:59.448Z,772.28
2018-10-05T00:35:03.547Z,772.3
2018-10-05T00:35:07.864Z,772.34
2018-10-05T00:35:12.171Z,772.31
2018-10-05T00:35:16.484Z,772.29
2018-10-05T00:35:20.698Z,772.3
2018-10-05T00:35:24.685Z,772.27
2018-10-05T00:35:28.887Z,772.29
2018-10-05T00:35:33.194Z,772.33
2018-10-05T00:35:37.395Z,772.29
2018-10-05T00:35:41.708Z,772.3
2018-10-05T00:35:45.914Z,772.28
2018-10-05T00:35:50.220Z,772.33
2018-10-05T00:35:54.425Z,772.31
2018-10-05T00:35:58.739Z,772.33
2018-10-05T00:36:03.055Z,772.3
2018-10-05T00:36:07.370Z,772.33
2018-10-05T00:36:11.465Z,772.34
2018-10-05T00:36:15.778Z,772.33
2018-10-05T00:36:20.088Z,772.29
2018-10-05T00:36:24.286Z,772.32
2018-10-05T00:36:28.393Z,772.34
2018-10-05T00:36:32.490Z,772.34
2018-10-05T00:36:36.688Z,772.34
2018-10-05T00:36:41.013Z,772.39
2018-10-05T00:36:45.319Z,772.38
2018-10-05T00:36:49.420Z,772.35
2018-10-05T00:36:53.633Z,772.37
2018-10-05T00:36:57.835Z,772.38
2018-10-05T00:37:02.043Z,772.35
2018-10-05T00:37:06.350Z,772.36
2018-10-05T00:37:10.655Z,772.37
2018-10-05T00:37:14.963Z,772.36
2018-10-05T00:37:19.277Z,772.35
2018-10-05T00:37:23.484Z,772.33
2018-10-05T00:37:27.839Z,772.35
2018-10-05T00:37:32.157Z,772.39
2018-10-05T00:37:36.253Z,772.37
2018-10-05T00:37:40.457Z,772.41
2018-10-05T00:37:44.659Z,772.41
2018-10-05T00:37:48.964Z,772.42
2018-10-05T00:37:53.189Z,772.42
2018-10-05T00:37:57.548Z,772.42
2018-10-05T00:38:02.138Z,772.46
2018-10-05T00:38:06.861Z,772.42
2018-10-05T00:38:11.633Z,772.42
2018-10-05T00:38:15.738Z,772.46
2018-10-05T00:38:19.832Z,772.46
2018-10-05T00:38:24.193Z,772.43
2018-10-05T00:38:28.500Z,772.45
2018-10-05T00:38:32.705Z,772.48
2018-10-05T00:38:36.913Z,772.46
2018-10-05T00:38:41.012Z,772.44
2018-10-05T00:38:44.998Z,772.48
2018-10-05T00:38:49.206Z,772.47
2018-10-05T00:38:53.403Z,772.45
2018-10-05T00:38:57.502Z,772.47
2018-10-05T00:39:01.811Z,772.47
2018-10-05T00:39:06.011Z,772.42
2018-10-05T00:39:10.331Z,772.47
2018-10-05T00:39:14.538Z,772.48
2018-10-05T00:39:18.845Z,772.46
2018-10-05T00:39:23.160Z,772.5
2018-10-05T00:39:27.168Z,772.49
2018-10-05T00:39:31.372Z,772.54
2018-10-05T00:39:35.585Z,772.54
2018-10-05T00:39:39.930Z,772.49
2018-10-05T00:39:44.594Z,772.53
2018-10-05T00:39:48.754Z,772.56
2018-10-05T00:39:53.065Z,772.55
2018-10-05T00:39:57.376Z,772.52
2018-10-05T00:40:01.588Z,772.54
2018-10-05T00:40:05.470Z,772.55
2018-10-05T00:40:09.252Z,772.58
2018-10-05T00:40:13.459Z,772.54
2018-10-05T00:40:17.564Z,772.57
2018-10-05T00:40:21.869Z,772.56
2018-10-05T00:40:26.070Z,772.58
2018-10-05T00:40:30.394Z,772.57
2018-10-05T00:40:34.592Z,772.58
2018-10-05T00:40:38.920Z,772.54
2018-10-05T00:40:43.254Z,772.54
2018-10-05T00:40:47.348Z,772.52
2018-10-05T00:40:51.570Z,772.47
2018-10-05T00:40:55.768Z,772.52
2018-10-05T00:40:59.869Z,772.55
2018-10-05T00:41:03.858Z,772.52
2018-10-05T00:41:07.876Z,772.56
2018-10-05T00:41:12.187Z,772.57
2018-10-05T00:41:16.293Z,772.58
2018-10-05T00:41:20.616Z,772.59
2018-10-05T00:41:24.829Z,772.59
2018-10-05T00:41:29.142Z,772.59
2018-10-05T00:41:33.347Z,772.61
2018-10-05T00:41:37.547Z,772.59
2018-10-05T00:41:41.751Z,772.59
2018-10-05T00:41:45.857Z,772.63
2018-10-05T00:41:49.855Z,772.56
2018-10-05T00:41:54.232Z,772.58
2018-10-05T00:41:58.335Z,772.61
2018-10-05T00:42:02.673Z,772.6
2018-10-05T00:42:06.776Z,772.58
2018-10-05T00:42:10.985Z,772.58
2018-10-05T00:42:15.291Z,772.59
2018-10-05T00:42:19.602Z,772.61
2018-10-05T00:42:23.913Z,772.61
2018-10-05T00:42:28.116Z,772.57
2018-10-05T00:42:32.107Z,772.58
2018-10-05T00:42:36.345Z,772.57
2018-10-05T00:42:40.664Z,772.55
2018-10-05T00:42:44.651Z,772.6
2018-10-05T00:42:48.853Z,772.61
2018-10-05T00:42:53.058Z,772.59
2018-10-05T00:42:57.281Z,772.63
2018-10-05T00:43:01.613Z,772.61
2018-10-05T00:43:05.826Z,772.6
2018-10-05T00:43:10.034Z,772.62
2018-10-05T00:43:14.291Z,772.6
2018-10-05T00:43:18.509Z,772.63
2018-10-05T00:43:22.710Z,772.63
2018-10-05T00:43:26.809Z,772.62
2018-10-05T00:43:30.799Z,772.6
2018-10-05T00:43:35.116Z,772.61
2018-10-05T00:43:39.313Z,772.61
2018-10-05T00:43:43.624Z,772.63
2018-10-05T00:43:47.719Z,772.62
2018-10-05T00:43:51.734Z,772.64
2018-10-05T00:43:55.960Z,772.64
2018-10-05T00:44:00.278Z,772.62
2018-10-05T00:44:04.379Z,772.65
2018-10-05T00:44:08.473Z,772.63
2018-10-05T00:44:12.673Z,772.63
2018-10-05T00:44:16.870Z,772.63
2018-10-05T00:44:21.178Z,772.61
2018-10-05T00:44:25.385Z,772.61
2018-10-05T00:44:29.482Z,772.58
2018-10-05T00:44:33.684Z,772.59
2018-10-05T00:44:37.780Z,772.58
2018-10-05T00:44:41.980Z,772.65
2018-10-05T00:44:46.299Z,772.64
2018-10-05T00:44:50.507Z,772.63
2018-10-05T00:44:54.710Z,772.64
2018-10-05T00:44:58.917Z,772.61
2018-10-05T00:45:03.122Z,772.62
2018-10-05T00:45:07.121Z,772.63
2018-10-05T00:45:11.430Z,772.65
2018-10-05T00:45:15.637Z,772.63
2018-10-05T00:45:19.734Z,772.63
2018-10-05T00:45:23.936Z,772.62
2018-10-05T00:45:28.143Z,772.66
2018-10-05T00:45:32.235Z,772.61
2018-10-05T00:45:36.121Z,772.62
2018-10-05T00:45:40.318Z,772.61
2018-10-05T00:45:44.522Z,772.6
2018-10-05T00:45:48.613Z,772.64
2018-10-05T00:45:52.495Z,772.63
2018-10-05T00:45:56.808Z,772.61
2018-10-05T00:46:01.118Z,772.61
2018-10-05T00:46:05.343Z,772.61
2018-10-05T00:46:09.542Z,772.64
2018-10-05T00:46:13.745Z,772.59
2018-10-05T00:46:17.946Z,772.64
2018-10-05T00:46:22.262Z,772.65
2018-10-05T00:46:26.574Z,772.62
2018-10-05T00:46:30.888Z,772.6
2018-10-05T00:46:35.195Z,772.64
2018-10-05T00:46:39.503Z,772.65
2018-10-05T00:46:43.705Z,772.62
2018-10-05T00:46:48.014Z,772.66
2018-10-05T00:46:52.233Z,772.65
2018-10-05T00:46:56.328Z,772.62
2018-10-05T00:47:00.635Z,772.62
2018-10-05T00:47:04.749Z,772.64
2018-10-05T00:47:08.961Z,772.63
2018-10-05T00:47:13.266Z,772.59
2018-10-05T00:47:17.472Z,772.59
2018-10-05T00:47:21.775Z,772.59
2018-10-05T00:47:25.887Z,772.64
2018-10-05T00:47:30.085Z,772.63
2018-10-05T00:47:34.287Z,772.64
2018-10-05T00:47:38.488Z,772.64
2018-10-05T00:47:42.795Z,772.65
2018-10-05T00:47:47.002Z,772.62
2018-10-05T00:47:51.316Z,772.58
2018-10-05T00:47:55.532Z,772.64
2018-10-05T00:47:59.840Z,772.64
2018-10-05T00:48:04.046Z,772.63
2018-10-05T00:48:08.356Z,772.62
2018-10-05T00:48:12.344Z,772.62
2018-10-05T00:48:16.544Z,772.62
2018-10-05T00:48:20.862Z,772.63
2018-10-05T00:48:25.063Z,772.62
2018-10-05T00:48:29.267Z,772.64
2018-10-05T00:48:33.579Z,772.63
2018-10-05T00:48:37.886Z,772.65
2018-10-05T00:48:42.083Z,772.65
2018-10-05T00:48:46.283Z,772.6
2018-10-05T00:48:50.479Z,772.64
2018-10-05T00:48:54.681Z,772.63
2018-10-05T00:48:58.883Z,772.65
2018-10-05T00:49:03.335Z,772.61
2018-10-05T00:49:07.427Z,772.6
2018-10-05T00:49:11.408Z,772.64
2018-10-05T00:49:15.716Z,772.67
2018-10-05T00:49:19.808Z,772.65
2018-10-05T00:49:24.132Z,772.63
2018-10-05T00:49:28.242Z,772.62
2018-10-05T00:49:32.441Z,772.64
2018-10-05T00:49:36.759Z,772.66
2018-10-05T00:49:41.071Z,772.61
2018-10-05T00:49:45.385Z,772.6
2018-10-05T00:49:49.590Z,772.57
2018-10-05T00:49:53.804Z,772.66
2018-10-05T00:49:58.109Z,772.64
2018-10-05T00:50:02.219Z,772.64
2018-10-05T00:50:06.326Z,772.65
2018-10-05T00:50:10.637Z,772.62
2018-10-05T00:50:14.842Z,772.63
2018-10-05T00:50:19.152Z,772.66
2018-10-05T00:50:23.258Z,772.62
2018-10-05T00:50:27.460Z,772.61
2018-10-05T00:50:31.555Z,772.63
2018-10-05T00:50:35.863Z,772.6
2018-10-05T00:50:40.166Z,772.63
2018-10-05T00:50:44.379Z,772.61
2018-10-05T00:50:48.692Z,772.58
2018-10-05T00:50:52.898Z,772.56
2018-10-05T00:50:57.000Z,772.59
2018-10-05T00:51:01.322Z,772.61
2018-10-05T00:51:05.527Z,772.64
2018-10-05T00:51:09.784Z,772.62
2018-10-05T00:51:13.877Z,772.61
2018-10-05T00:51:17.974Z,772.6
2018-10-05T00:51:22.062Z,772.59
2018-10-05T00:51:26.373Z,772.6
2018-10-05T00:51:30.467Z,772.58
2018-10-05T00:51:34.564Z,772.6
2018-10-05T00:51:38.879Z,772.57
2018-10-05T00:51:43.191Z,772.57
2018-10-05T00:51:47.390Z,772.57
2018-10-05T00:51:51.376Z,772.52
2018-10-05T00:51:55.578Z,772.53
2018-10-05T00:51:59.785Z,772.49
2018-10-05T00:52:04.026Z,772.53
2018-10-05T00:52:08.352Z,772.51
2018-10-05T00:52:12.657Z,772.57
2018-10-05T00:52:16.857Z,772.55
2018-10-05T00:52:21.176Z,772.56
2018-10-05T00:52:25.376Z,772.55
2018-10-05T00:52:29.467Z,772.54
2018-10-05T00:52:33.666Z,772.5